createdAt,value
2022-08-19T00:01:03.809Z,6.57
2022-08-19T00:03:34.180Z,6.57
2022-08-19T00:06:05.700Z,6.50
2022-08-19T00:08:38.453Z,5.78
2022-08-19T00:11:18.701Z,6.28
2022-08-19T00:13:57.673Z,7.13
2022-08-19T00:16:29.618Z,6.50
2022-08-19T00:19:00.222Z,7.18
2022-08-19T00:21:32.738Z,5.97
2022-08-19T00:24:03.209Z,6.80
2022-08-19T00:26:41.755Z,6.30
2022-08-19T00:29:13.903Z,6.63
2022-08-19T00:31:45.664Z,6.72
2022-08-19T00:34:17.053Z,6.75
2022-08-19T00:36:47.527Z,6.63
2022-08-19T00:39:19.670Z,7.25
2022-08-19T00:41:55.182Z,6.68
2022-08-19T00:44:29.402Z,6.68
2022-08-19T00:47:02.879Z,6.57
2022-08-19T00:49:38.829Z,6.97
2022-08-19T00:52:15.401Z,6.90
2022-08-19T00:54:53.058Z,7.10
2022-08-19T00:57:33.056Z,7.00
2022-08-19T01:00:06.311Z,6.88
2022-08-19T01:02:39.337Z,6.82
2022-08-19T01:05:17.414Z,6.75
2022-08-19T01:07:49.127Z,7.28
2022-08-19T01:10:23.840Z,6.93
2022-08-19T01:13:01.970Z,6.88
2022-08-19T01:15:40.038Z,6.78
2022-08-19T01:18:13.692Z,7.00
2022-08-19T01:20:45.471Z,6.97
2022-08-19T01:23:19.661Z,7.70
2022-08-19T01:25:53.332Z,7.60
2022-08-19T01:28:40.078Z,8.32
2022-08-19T01:31:27.178Z,7.57
2022-08-19T01:33:59.989Z,7.68
2022-08-19T01:36:37.526Z,7.15
2022-08-19T01:39:17.386Z,6.55
2022-08-19T01:41:47.716Z,7.40
2022-08-19T01:44:21.373Z,7.75
2022-08-19T01:46:52.731Z,8.63
2022-08-19T01:49:28.328Z,7.18
2022-08-19T01:51:59.989Z,8.23
2022-08-19T01:54:34.513Z,8.35
2022-08-19T01:57:09.633Z,8.00
2022-08-19T01:59:50.779Z,8.43
2022-08-19T02:02:21.121Z,8.23
2022-08-19T02:04:52.027Z,8.25
2022-08-19T02:07:25.230Z,8.93
2022-08-19T02:12:48.013Z,8.20
2022-08-19T02:15:20.281Z,8.45
2022-08-19T02:17:52.435Z,9.30
2022-08-19T02:20:26.143Z,8.13
2022-08-19T02:22:57.433Z,8.00
2022-08-19T02:25:30.122Z,8.52
2022-08-19T02:30:33.366Z,8.27
2022-08-19T02:33:03.589Z,7.75
2022-08-19T02:35:33.705Z,8.88
2022-08-19T02:38:16.539Z,8.48
2022-08-19T02:40:59.262Z,8.98
2022-08-19T02:43:33.955Z,8.90
2022-08-19T02:46:05.775Z,9.85
2022-08-19T02:48:44.722Z,9.85
2022-08-19T02:51:23.310Z,8.82
2022-08-19T02:53:55.373Z,10.32
2022-08-19T02:56:28.702Z,10.43
2022-08-19T03:01:32.239Z,10.35
2022-08-19T03:04:07.999Z,9.83
2022-08-19T03:06:41.876Z,10.27
2022-08-19T03:09:13.872Z,10.43
2022-08-19T03:11:46.799Z,9.50
2022-08-19T03:14:19.232Z,9.73
2022-08-19T03:16:52.446Z,10.80
2022-08-19T03:19:24.461Z,10.15
2022-08-19T03:21:58.057Z,9.43
2022-08-19T03:24:29.603Z,9.95
2022-08-19T03:27:04.993Z,10.07
2022-08-19T03:29:43.332Z,10.52
2022-08-19T03:32:31.708Z,10.82
2022-08-19T03:35:03.657Z,10.63
2022-08-19T03:37:42.199Z,12.73
2022-08-19T03:40:16.386Z,9.98
2022-08-19T03:42:51.112Z,10.85
2022-08-19T03:45:22.508Z,9.32
2022-08-19T03:47:53.941Z,10.07
2022-08-19T03:50:27.564Z,10.73
2022-08-19T03:53:01.032Z,10.60
2022-08-19T03:58:07.713Z,10.65
2022-08-19T04:00:38.088Z,10.20
2022-08-19T04:03:09.370Z,10.75
2022-08-19T04:05:40.059Z,10.68
2022-08-19T04:08:13.867Z,11.07
2022-08-19T04:10:45.149Z,11.52
2022-08-19T04:13:21.531Z,10.93
2022-08-19T04:15:52.305Z,10.48
2022-08-19T04:18:23.064Z,11.05
2022-08-19T04:20:54.102Z,12.23
2022-08-19T04:23:25.013Z,11.38
2022-08-19T04:25:59.197Z,10.80
2022-08-19T04:28:37.920Z,12.15
2022-08-19T04:31:09.215Z,10.40
2022-08-19T04:33:40.036Z,10.70
2022-08-19T04:36:12.254Z,11.65
2022-08-19T04:38:42.399Z,11.30
2022-08-19T04:41:24.826Z,11.32
2022-08-19T04:44:04.158Z,11.32
2022-08-19T04:46:40.335Z,11.55
2022-08-19T04:49:23.739Z,11.85
2022-08-19T04:51:59.986Z,11.80
2022-08-19T04:54:38.677Z,11.60
2022-08-19T04:57:12.189Z,11.05
2022-08-19T04:59:52.800Z,11.93
2022-08-19T05:02:26.327Z,11.32
2022-08-19T05:05:03.481Z,11.70
2022-08-19T05:07:34.090Z,10.43
2022-08-19T05:10:04.321Z,10.88
2022-08-19T05:12:38.344Z,12.23
2022-08-19T05:15:13.836Z,11.02
2022-08-19T05:18:06.441Z,12.05
2022-08-19T05:20:49.444Z,11.20
2022-08-19T05:23:22.742Z,12.00
2022-08-19T05:25:54.361Z,13.15
2022-08-19T05:28:27.525Z,12.45
2022-08-19T05:31:03.953Z,11.00
2022-08-19T05:33:35.603Z,13.02
2022-08-19T05:36:08.435Z,12.05
2022-08-19T05:38:41.731Z,12.02
2022-08-19T05:43:42.960Z,12.20
2022-08-19T05:46:28.076Z,13.25
2022-08-19T05:49:02.628Z,13.48
2022-08-19T05:51:38.360Z,13.50
2022-08-19T05:54:09.903Z,12.70
2022-08-19T05:56:40.397Z,12.85
2022-08-19T05:59:13.083Z,13.88
2022-08-19T06:01:51.735Z,12.82
2022-08-19T06:04:27.708Z,11.65
2022-08-19T06:07:12.075Z,12.82
2022-08-19T06:09:43.598Z,12.82
2022-08-19T06:12:31.743Z,12.00
2022-08-19T06:15:02.486Z,10.10
2022-08-19T06:17:36.281Z,11.25
2022-08-19T06:20:08.368Z,11.63
2022-08-19T06:22:41.905Z,12.07
2022-08-19T06:25:13.378Z,10.65
2022-08-19T06:28:11.508Z,10.15
2022-08-19T06:30:36.426Z,9.50
2022-08-19T06:33:10.843Z,9.27
2022-08-19T06:38:36.318Z,9.68
2022-08-19T06:41:09.343Z,9.00
2022-08-19T06:43:42.254Z,14.85
2022-08-19T06:48:50.531Z,9.95
2022-08-19T06:51:22.778Z,9.40
2022-08-19T06:53:55.671Z,8.63
2022-08-19T06:56:32.228Z,8.57
2022-08-19T06:59:03.788Z,8.82
2022-08-19T07:01:41.755Z,8.85
2022-08-19T07:04:27.455Z,8.80
2022-08-19T07:07:19.557Z,7.68
2022-08-19T07:12:38.168Z,8.07
2022-08-19T07:15:12.469Z,8.13
2022-08-19T07:17:44.991Z,8.07
2022-08-19T07:20:21.288Z,8.55
2022-08-19T07:22:52.416Z,7.43
2022-08-19T07:25:32.174Z,8.27
2022-08-19T07:28:04.831Z,8.52
2022-08-19T07:30:38.295Z,7.80
2022-08-19T07:33:09.892Z,7.03
2022-08-19T07:35:44.941Z,7.30
2022-08-19T07:38:15.978Z,7.57
2022-08-19T07:40:47.242Z,6.57
2022-08-19T07:43:19.422Z,8.32
2022-08-19T07:45:51.495Z,6.80
2022-08-19T07:48:26.098Z,7.47
2022-08-19T07:51:03.481Z,7.03
2022-08-19T07:53:39.678Z,7.18
2022-08-19T07:56:11.367Z,7.53
2022-08-19T07:58:45.694Z,7.05
2022-08-19T08:01:20.444Z,7.28
2022-08-19T08:04:05.682Z,7.57
2022-08-19T08:06:53.867Z,6.40
2022-08-19T08:09:27.000Z,6.25
2022-08-19T08:12:05.097Z,6.43
2022-08-19T08:14:44.130Z,7.22
2022-08-19T08:17:16.353Z,6.85
2022-08-19T08:20:04.125Z,6.95
2022-08-19T08:22:52.863Z,6.38
2022-08-19T08:25:32.484Z,5.72
2022-08-19T08:28:03.198Z,6.93
2022-08-19T08:30:36.990Z,6.97
2022-08-19T08:33:08.582Z,6.78
2022-08-19T08:35:40.107Z,6.55
2022-08-19T08:38:14.353Z,5.90
2022-08-19T08:40:49.798Z,6.95
2022-08-19T08:43:32.423Z,6.22
2022-08-19T08:46:07.762Z,6.07
2022-08-19T08:48:52.782Z,5.10
2022-08-19T08:51:30.881Z,5.30
2022-08-19T08:54:11.660Z,5.88
2022-08-19T08:56:42.700Z,6.20
2022-08-19T08:59:23.040Z,4.93
2022-08-19T09:01:53.210Z,6.03
2022-08-19T09:04:24.802Z,6.07
2022-08-19T09:07:18.255Z,6.55
2022-08-19T09:10:11.208Z,5.60
2022-08-19T09:12:51.155Z,5.45
2022-08-19T09:15:36.632Z,5.18
2022-08-19T09:18:08.458Z,5.80
2022-08-19T09:20:50.649Z,6.18
2022-08-19T09:23:26.800Z,5.28
2022-08-19T09:26:01.317Z,5.05
2022-08-19T09:28:34.075Z,4.97
2022-08-19T09:33:35.070Z,4.90
2022-08-19T09:36:31.172Z,5.13
2022-08-19T09:39:16.028Z,5.90
2022-08-19T09:41:51.060Z,5.15
2022-08-19T09:44:23.497Z,4.72
2022-08-19T09:46:54.244Z,4.72
2022-08-19T09:49:25.318Z,4.40
2022-08-19T09:51:57.360Z,4.38
2022-08-19T09:54:32.451Z,4.78
2022-08-19T09:57:10.900Z,4.10
2022-08-19T09:59:49.039Z,4.30
2022-08-19T10:02:22.050Z,5.13
2022-08-19T10:05:05.847Z,4.28
2022-08-19T10:07:36.775Z,4.68
2022-08-19T10:10:07.894Z,4.50
2022-08-19T10:12:43.258Z,4.50
2022-08-19T10:15:29.206Z,4.50
2022-08-19T10:18:00.917Z,5.15
2022-08-19T10:20:31.363Z,4.65
2022-08-19T10:23:06.549Z,4.28
2022-08-19T10:25:38.667Z,4.75
2022-08-19T10:28:19.173Z,5.25
2022-08-19T10:30:56.861Z,4.53
2022-08-19T10:33:38.875Z,4.40
2022-08-19T10:36:24.090Z,5.17
2022-08-19T10:38:58.420Z,4.25
2022-08-19T10:41:31.319Z,5.20
2022-08-19T10:44:11.571Z,4.68
2022-08-19T10:49:24.019Z,5.05
2022-08-19T10:52:10.209Z,4.00
2022-08-19T10:54:54.616Z,4.35
2022-08-19T10:57:45.996Z,4.22
2022-08-19T11:00:27.246Z,3.92
2022-08-19T11:02:58.327Z,5.32
2022-08-19T11:05:29.659Z,4.28
2022-08-19T11:08:22.578Z,5.00
2022-08-19T11:11:01.690Z,4.72
2022-08-19T11:13:33.539Z,4.07
2022-08-19T11:16:09.276Z,4.63
2022-08-19T11:18:43.884Z,3.72
2022-08-19T11:21:21.286Z,4.85
2022-08-19T11:23:55.416Z,4.03
2022-08-19T11:26:28.317Z,3.83
2022-08-19T11:29:00.747Z,3.90
2022-08-19T11:31:36.493Z,4.22
2022-08-19T11:34:09.510Z,4.97
2022-08-19T11:36:43.649Z,5.03
2022-08-19T11:39:16.575Z,5.88
2022-08-19T11:41:48.032Z,5.05
2022-08-19T11:44:18.455Z,6.50
2022-08-19T11:46:56.067Z,6.47
2022-08-19T11:49:27.491Z,5.38
2022-08-19T11:51:59.459Z,4.50
2022-08-19T11:54:29.708Z,4.22
2022-08-19T11:57:02.410Z,4.72
2022-08-19T11:59:33.484Z,4.85
2022-08-19T12:02:06.326Z,5.63
2022-08-19T12:04:38.914Z,4.72
2022-08-19T12:07:09.075Z,4.45
2022-08-19T12:09:42.862Z,4.88
2022-08-19T12:12:14.425Z,4.20
2022-08-19T12:14:47.614Z,6.67
2022-08-19T12:17:23.034Z,4.80
2022-08-19T12:19:55.818Z,6.40
2022-08-19T12:22:26.811Z,5.45
2022-08-19T12:24:57.685Z,4.95
2022-08-19T12:27:40.405Z,5.70
2022-08-19T12:30:17.164Z,5.25
2022-08-19T12:32:53.293Z,4.95
2022-08-19T12:35:23.874Z,4.63
2022-08-19T12:37:59.628Z,8.32
2022-08-19T12:40:32.670Z,7.20
2022-08-19T12:43:03.332Z,6.80
2022-08-19T12:45:39.745Z,6.85
2022-08-19T12:48:33.401Z,7.03
2022-08-19T12:53:34.596Z,6.97
2022-08-19T12:56:11.507Z,6.90
2022-08-19T12:58:49.047Z,7.47
2022-08-19T13:01:23.853Z,7.35
2022-08-19T13:04:01.468Z,6.40
2022-08-19T13:06:32.483Z,6.97
2022-08-19T13:09:02.645Z,7.22
2022-08-19T13:11:34.260Z,5.82
2022-08-19T13:14:09.946Z,7.50
2022-08-19T13:16:41.495Z,7.30
2022-08-19T13:19:16.566Z,6.55
2022-08-19T13:21:48.989Z,7.82
2022-08-19T13:24:27.718Z,6.20
2022-08-19T13:27:06.114Z,6.93
2022-08-19T13:29:48.695Z,5.47
2022-08-19T13:32:31.258Z,7.45
2022-08-19T13:35:05.067Z,6.20
2022-08-19T13:37:45.909Z,7.35
2022-08-19T13:40:22.158Z,5.82
2022-08-19T13:42:57.405Z,4.85
2022-08-19T13:45:30.846Z,5.50
2022-08-19T13:48:02.003Z,6.07
2022-08-19T13:50:38.270Z,5.50
2022-08-19T13:53:09.348Z,4.55
2022-08-19T13:55:41.508Z,5.10
2022-08-19T13:58:13.653Z,4.80
2022-08-19T14:00:51.486Z,4.72
2022-08-19T14:03:21.789Z,5.40
2022-08-19T14:06:12.297Z,6.28
2022-08-19T14:08:46.200Z,5.97
2022-08-19T14:11:17.372Z,6.05
2022-08-19T14:13:47.536Z,5.43
2022-08-19T14:16:18.407Z,5.47
2022-08-19T14:18:49.496Z,5.30
2022-08-19T14:21:27.994Z,5.32
2022-08-19T14:23:59.919Z,6.05
2022-08-19T14:26:30.286Z,4.77
2022-08-19T14:29:04.943Z,5.68
2022-08-19T14:31:35.091Z,5.35
2022-08-19T14:34:06.395Z,5.85
2022-08-19T14:36:47.105Z,6.18
2022-08-19T14:39:20.403Z,6.28
2022-08-19T14:41:50.656Z,6.32
2022-08-19T14:44:21.520Z,6.55
2022-08-19T14:46:51.911Z,6.00
2022-08-19T14:49:34.778Z,6.35
2022-08-19T14:52:16.406Z,4.72
2022-08-19T14:54:49.571Z,5.72
2022-08-19T14:57:21.208Z,5.88
2022-08-19T14:59:51.380Z,5.85
2022-08-19T15:02:35.014Z,5.18
2022-08-19T15:05:05.694Z,6.05
2022-08-19T15:07:39.076Z,6.63
2022-08-19T15:10:19.777Z,5.97
2022-08-19T15:12:51.817Z,6.18
2022-08-19T15:15:30.951Z,6.15
2022-08-19T15:18:05.035Z,6.25
2022-08-19T15:20:35.484Z,6.30
2022-08-19T15:23:11.801Z,7.75
2022-08-19T15:25:42.579Z,7.57
2022-08-19T15:28:13.674Z,7.07
2022-08-19T15:30:45.168Z,6.90
2022-08-19T15:33:18.515Z,8.50
2022-08-19T15:35:51.741Z,5.88
2022-08-19T15:38:27.386Z,6.20
2022-08-19T15:41:19.801Z,5.97
2022-08-19T15:43:52.527Z,5.85
2022-08-19T15:46:25.134Z,6.65
2022-08-19T15:48:59.706Z,5.07
2022-08-19T15:51:32.589Z,6.32
2022-08-19T15:54:09.977Z,5.93
2022-08-19T15:56:58.342Z,5.57
2022-08-19T15:59:43.702Z,6.40
2022-08-19T16:02:32.997Z,6.90
2022-08-19T16:05:18.761Z,5.35
2022-08-19T16:07:51.502Z,6.97
2022-08-19T16:10:27.349Z,6.65
2022-08-19T16:12:59.274Z,6.93
2022-08-19T16:15:33.966Z,6.60
2022-08-19T16:18:05.315Z,5.68
2022-08-19T16:20:36.618Z,6.15
2022-08-19T16:23:07.368Z,6.18
2022-08-19T16:25:40.184Z,5.78
2022-08-19T16:28:12.302Z,7.15
2022-08-19T16:30:48.663Z,7.00
2022-08-19T16:33:23.235Z,6.28
2022-08-19T16:36:00.154Z,8.57
2022-08-19T16:38:38.111Z,6.00
2022-08-19T16:41:11.838Z,7.18
2022-08-19T16:43:46.167Z,5.55
2022-08-19T16:46:19.568Z,7.20
2022-08-19T16:48:55.403Z,7.38
2022-08-19T16:51:28.394Z,6.43
2022-08-19T16:53:58.994Z,7.97
2022-08-19T16:56:34.620Z,6.60
2022-08-19T16:59:04.966Z,7.28
2022-08-19T17:01:35.417Z,7.68
2022-08-19T17:04:05.879Z,8.15
2022-08-19T17:06:38.317Z,9.95
2022-08-19T17:09:10.473Z,7.82
2022-08-19T17:11:43.247Z,8.65
2022-08-19T17:14:13.779Z,8.45
2022-08-19T17:16:45.355Z,7.03
2022-08-19T17:19:15.544Z,8.45
2022-08-19T17:21:46.681Z,6.72
2022-08-19T17:24:17.458Z,7.60
2022-08-19T17:26:52.372Z,7.35
2022-08-19T17:29:23.477Z,7.05
2022-08-19T17:31:56.128Z,7.43
2022-08-19T17:34:26.562Z,7.88
2022-08-19T17:36:59.586Z,7.65
2022-08-19T17:39:45.094Z,7.32
2022-08-19T17:42:17.999Z,8.60
2022-08-19T17:44:50.851Z,9.52
2022-08-19T17:49:52.126Z,12.77
2022-08-19T17:52:23.767Z,11.88
2022-08-19T17:54:54.837Z,7.32
2022-08-19T17:57:29.016Z,5.72
2022-08-19T17:59:59.297Z,6.47
2022-08-19T18:02:29.961Z,7.00
2022-08-19T18:05:07.923Z,6.40
2022-08-19T18:07:39.185Z,8.57
2022-08-19T18:10:18.001Z,5.95
2022-08-19T18:15:23.057Z,5.93
2022-08-19T18:17:56.203Z,5.95
2022-08-19T18:20:26.587Z,4.97
2022-08-19T18:22:59.463Z,6.82
2022-08-19T18:25:50.532Z,6.15
2022-08-19T18:28:24.633Z,6.15
2022-08-19T18:30:58.628Z,6.50
2022-08-19T18:33:30.988Z,7.22
2022-08-19T18:36:04.345Z,7.47
2022-08-19T18:38:54.738Z,8.80
2022-08-19T18:41:41.457Z,6.53
2022-08-19T18:44:29.082Z,8.57
2022-08-19T18:47:12.377Z,7.70
2022-08-19T18:49:46.290Z,7.32
2022-08-19T18:52:16.504Z,8.50
2022-08-19T18:54:48.898Z,8.75
2022-08-19T18:57:24.965Z,9.18
2022-08-19T19:00:02.968Z,8.85
2022-08-19T19:02:41.431Z,8.10
2022-08-19T19:05:13.950Z,7.60
2022-08-19T19:07:44.881Z,9.30
2022-08-19T19:10:15.030Z,8.30
2022-08-19T19:12:48.300Z,10.73
2022-08-19T19:15:26.538Z,8.32
2022-08-19T19:17:57.008Z,8.40
2022-08-19T19:20:35.289Z,9.90
2022-08-19T19:23:10.118Z,10.43
2022-08-19T19:28:29.009Z,54.08
2022-08-19T19:31:02.155Z,35.05
2022-08-19T19:33:32.374Z,18.20
2022-08-19T19:36:05.851Z,15.68
2022-08-19T19:38:37.773Z,11.25
2022-08-19T19:41:08.902Z,11.77
2022-08-19T19:43:41.008Z,13.20
2022-08-19T19:46:15.805Z,12.18
2022-08-19T19:48:46.436Z,12.60
2022-08-19T19:51:21.039Z,10.50
2022-08-19T19:53:53.898Z,10.48
2022-08-19T19:56:25.300Z,10.63
2022-08-19T19:58:55.806Z,10.65
2022-08-19T20:01:31.513Z,10.73
2022-08-19T20:04:12.422Z,11.48
2022-08-19T20:06:43.317Z,11.00
2022-08-19T20:09:18.907Z,11.80
2022-08-19T20:11:54.766Z,10.38
2022-08-19T20:14:29.226Z,12.55
2022-08-19T20:17:07.337Z,13.60
2022-08-19T20:19:37.866Z,11.73
2022-08-19T20:22:10.586Z,11.07
2022-08-19T20:24:42.792Z,11.55
2022-08-19T20:27:12.972Z,11.15
2022-08-19T20:29:44.582Z,11.32
2022-08-19T20:32:22.610Z,11.07
2022-08-19T20:34:52.816Z,12.63
2022-08-19T20:37:22.949Z,12.18
2022-08-19T20:40:03.306Z,11.55
2022-08-19T20:42:35.635Z,12.98
2022-08-19T20:45:09.913Z,12.43
2022-08-19T20:48:05.219Z,12.07
2022-08-19T20:50:37.984Z,11.77
2022-08-19T20:53:14.224Z,12.25
2022-08-19T20:55:47.516Z,12.07
2022-08-19T21:00:50.231Z,13.00
2022-08-19T21:03:27.902Z,15.35
2022-08-19T21:05:58.987Z,15.45
2022-08-19T21:08:30.056Z,14.40
2022-08-19T21:11:00.561Z,15.40
2022-08-19T21:13:33.117Z,14.73
2022-08-19T21:16:05.515Z,14.97
2022-08-19T21:18:43.177Z,14.88
2022-08-19T21:21:13.649Z,15.32
2022-08-19T21:23:45.642Z,15.02
2022-08-19T21:26:16.551Z,13.77
2022-08-19T21:28:48.312Z,12.07
2022-08-19T21:31:19.185Z,14.95
2022-08-19T21:33:53.111Z,17.20
2022-08-19T21:36:25.667Z,14.75
2022-08-19T21:39:09.045Z,13.27
2022-08-19T21:41:43.463Z,11.85
2022-08-19T21:44:14.561Z,11.00
2022-08-19T21:46:45.715Z,11.88
2022-08-19T21:49:24.237Z,12.13
2022-08-19T21:51:55.399Z,12.20
2022-08-19T21:54:27.317Z,13.10
2022-08-19T21:57:10.535Z,13.20
2022-08-19T21:59:44.203Z,13.52
2022-08-19T22:04:55.697Z,13.85
2022-08-19T22:07:26.629Z,12.57
2022-08-19T22:09:57.588Z,13.35
2022-08-19T22:12:31.627Z,13.13
2022-08-19T22:15:05.078Z,13.95
2022-08-19T22:17:35.234Z,15.95
2022-08-19T22:20:10.877Z,15.27
2022-08-19T22:22:48.877Z,15.18
2022-08-19T22:25:31.704Z,15.63
2022-08-19T22:28:02.700Z,17.27
2022-08-19T22:30:35.879Z,16.77
2022-08-19T22:33:11.763Z,17.45
2022-08-19T22:35:46.522Z,20.02
2022-08-19T22:38:24.382Z,18.48
2022-08-19T22:40:56.728Z,22.27
2022-08-19T22:43:31.765Z,22.45
2022-08-19T22:46:05.854Z,19.67
2022-08-19T22:48:47.200Z,18.42
2022-08-19T22:51:32.996Z,18.30
2022-08-19T22:54:04.053Z,19.27
2022-08-19T22:56:34.975Z,17.55
2022-08-19T22:59:08.735Z,18.60
2022-08-19T23:01:41.917Z,16.85
2022-08-19T23:04:12.364Z,18.27
2022-08-19T23:06:48.388Z,18.20
2022-08-19T23:09:18.715Z,19.92
2022-08-19T23:11:55.184Z,17.48
2022-08-19T23:14:28.219Z,20.60
2022-08-19T23:16:59.457Z,22.92
2022-08-19T23:19:29.930Z,23.13
2022-08-19T23:22:07.162Z,23.45
2022-08-19T23:24:37.623Z,24.13
2022-08-19T23:27:21.221Z,22.10
2022-08-19T23:30:05.981Z,22.83
2022-08-19T23:32:38.107Z,21.67
2022-08-19T23:35:09.161Z,21.15
2022-08-19T23:37:42.204Z,21.67
2022-08-19T23:40:15.237Z,21.83
2022-08-19T23:42:47.605Z,20.17
2022-08-19T23:45:25.549Z,20.17
2022-08-19T23:47:57.989Z,18.90
2022-08-19T23:50:29.973Z,19.38
2022-08-19T23:53:13.284Z,19.58
2022-08-19T23:58:17.876Z,16.55
